sensor_id;sensor_type;location;lat;lon;timestamp;temperature;humidity
38333;DHT22;25748;46.670;14.272;2024-03-25T00:02:09;0.60;66.40
38333;DHT22;25748;46.670;14.272;2024-03-25T00:04:35;0.60;66.60
38333;DHT22;25748;46.670;14.272;2024-03-25T00:07:01;0.60;66.80
38333;DHT22;25748;46.670;14.272;2024-03-25T00:09:27;0.60;67.00
38333;DHT22;25748;46.670;14.272;2024-03-25T00:11:53;0.60;66.90
38333;DHT22;25748;46.670;14.272;2024-03-25T00:14:21;0.60;67.40
38333;DHT22;25748;46.670;14.272;2024-03-25T00:16:49;0.60;66.90
38333;DHT22;25748;46.670;14.272;2024-03-25T00:19:15;0.60;66.90
38333;DHT22;25748;46.670;14.272;2024-03-25T00:21:41;0.50;66.80
38333;DHT22;25748;46.670;14.272;2024-03-25T00:24:08;0.50;66.90
38333;DHT22;25748;46.670;14.272;2024-03-25T00:26:34;0.50;66.90
38333;DHT22;25748;46.670;14.272;2024-03-25T00:28:59;0.50;66.80
38333;DHT22;25748;46.670;14.272;2024-03-25T00:31:25;0.50;66.80
38333;DHT22;25748;46.670;14.272;2024-03-25T00:33:51;0.40;66.70
38333;DHT22;25748;46.670;14.272;2024-03-25T00:36:16;0.40;66.90
38333;DHT22;25748;46.670;14.272;2024-03-25T00:38:43;0.40;66.90
38333;DHT22;25748;46.670;14.272;2024-03-25T00:41:09;0.40;67.00
38333;DHT22;25748;46.670;14.272;2024-03-25T00:43:34;0.40;67.20
38333;DHT22;25748;46.670;14.272;2024-03-25T00:46:00;0.40;67.20
38333;DHT22;25748;46.670;14.272;2024-03-25T00:48:26;0.30;67.10
38333;DHT22;25748;46.670;14.272;2024-03-25T00:50:52;0.30;66.80
38333;DHT22;25748;46.670;14.272;2024-03-25T00:53:18;0.30;66.90
38333;DHT22;25748;46.670;14.272;2024-03-25T00:55:44;0.30;66.80
38333;DHT22;25748;46.670;14.272;2024-03-25T00:58:09;0.30;66.90
38333;DHT22;25748;46.670;14.272;2024-03-25T01:00:35;0.20;66.90
38333;DHT22;25748;46.670;14.272;2024-03-25T01:03:01;0.20;66.70
38333;DHT22;25748;46.670;14.272;2024-03-25T01:05:27;0.20;66.70
38333;DHT22;25748;46.670;14.272;2024-03-25T01:07:53;0.20;66.60
38333;DHT22;25748;46.670;14.272;2024-03-25T01:10:19;0.10;66.70
38333;DHT22;25748;46.670;14.272;2024-03-25T01:12:44;0.10;67.00
38333;DHT22;25748;46.670;14.272;2024-03-25T01:15:11;0.10;67.10
38333;DHT22;25748;46.670;14.272;2024-03-25T01:17:37;0.10;67.00
38333;DHT22;25748;46.670;14.272;2024-03-25T01:20:03;0.10;66.60
38333;DHT22;25748;46.670;14.272;2024-03-25T01:22:33;0.10;66.80
38333;DHT22;25748;46.670;14.272;2024-03-25T01:24:58;0.00;66.50
38333;DHT22;25748;46.670;14.272;2024-03-25T01:27:24;0.00;66.40
38333;DHT22;25748;46.670;14.272;2024-03-25T01:29:50;-0.10;66.40
38333;DHT22;25748;46.670;14.272;2024-03-25T01:32:15;-0.10;66.60
38333;DHT22;25748;46.670;14.272;2024-03-25T01:34:41;-0.20;66.10
38333;DHT22;25748;46.670;14.272;2024-03-25T01:37:07;-0.20;66.40
38333;DHT22;25748;46.670;14.272;2024-03-25T01:39:32;-0.20;66.40
38333;DHT22;25748;46.670;14.272;2024-03-25T01:41:58;-0.30;66.40
38333;DHT22;25748;46.670;14.272;2024-03-25T01:44:24;-0.30;66.60
38333;DHT22;25748;46.670;14.272;2024-03-25T01:46:50;-0.20;66.60
38333;DHT22;25748;46.670;14.272;2024-03-25T01:49:18;-0.30;66.60
38333;DHT22;25748;46.670;14.272;2024-03-25T01:51:44;-0.30;66.50
38333;DHT22;25748;46.670;14.272;2024-03-25T01:54:10;-0.30;66.70
38333;DHT22;25748;46.670;14.272;2024-03-25T01:56:39;-0.40;66.70
38333;DHT22;25748;46.670;14.272;2024-03-25T01:59:07;-0.40;66.70
38333;DHT22;25748;46.670;14.272;2024-03-25T02:01:33;-0.40;66.60
38333;DHT22;25748;46.670;14.272;2024-03-25T02:03:59;-0.40;66.80
38333;DHT22;25748;46.670;14.272;2024-03-25T02:06:27;-0.40;66.80
38333;DHT22;25748;46.670;14.272;2024-03-25T02:08:55;-0.50;66.50
38333;DHT22;25748;46.670;14.272;2024-03-25T02:11:22;-0.50;66.80
38333;DHT22;25748;46.670;14.272;2024-03-25T02:13:50;-0.50;66.90
38333;DHT22;25748;46.670;14.272;2024-03-25T02:16:16;-0.50;67.10
38333;DHT22;25748;46.670;14.272;2024-03-25T02:18:41;-0.50;67.20
38333;DHT22;25748;46.670;14.272;2024-03-25T02:21:07;-0.50;67.20
38333;DHT22;25748;46.670;14.272;2024-03-25T02:23:33;-0.60;67.00
38333;DHT22;25748;46.670;14.272;2024-03-25T02:26:02;-0.60;66.90
38333;DHT22;25748;46.670;14.272;2024-03-25T02:28:28;-0.60;67.00
38333;DHT22;25748;46.670;14.272;2024-03-25T02:30:54;-0.60;67.40
38333;DHT22;25748;46.670;14.272;2024-03-25T02:33:20;-0.60;67.60
38333;DHT22;25748;46.670;14.272;2024-03-25T02:35:46;-0.60;67.70
38333;DHT22;25748;46.670;14.272;2024-03-25T02:38:12;-0.50;68.00
38333;DHT22;25748;46.670;14.272;2024-03-25T02:40:38;-0.50;68.00
38333;DHT22;25748;46.670;14.272;2024-03-25T02:43:04;-0.50;68.20
38333;DHT22;25748;46.670;14.272;2024-03-25T02:45:33;-0.50;68.10
38333;DHT22;25748;46.670;14.272;2024-03-25T02:47:58;-0.50;68.10
38333;DHT22;25748;46.670;14.272;2024-03-25T02:50:24;-0.60;67.90
38333;DHT22;25748;46.670;14.272;2024-03-25T02:52:51;-0.60;67.70
38333;DHT22;25748;46.670;14.272;2024-03-25T02:55:19;-0.60;67.50
38333;DHT22;25748;46.670;14.272;2024-03-25T02:57:45;-0.60;67.90
38333;DHT22;25748;46.670;14.272;2024-03-25T03:00:12;-0.60;68.10
38333;DHT22;25748;46.670;14.272;2024-03-25T03:02:39;-0.60;68.20
38333;DHT22;25748;46.670;14.272;2024-03-25T03:05:05;-0.60;68.20
38333;DHT22;25748;46.670;14.272;2024-03-25T03:07:31;-0.60;68.20
38333;DHT22;25748;46.670;14.272;2024-03-25T03:09:57;-0.60;68.30
38333;DHT22;25748;46.670;14.272;2024-03-25T03:12:23;-0.60;68.30
38333;DHT22;25748;46.670;14.272;2024-03-25T03:14:49;-0.60;68.50
38333;DHT22;25748;46.670;14.272;2024-03-25T03:17:15;-0.60;68.40
38333;DHT22;25748;46.670;14.272;2024-03-25T03:19:40;-0.60;68.30
38333;DHT22;25748;46.670;14.272;2024-03-25T03:22:06;-0.60;68.30
38333;DHT22;25748;46.670;14.272;2024-03-25T03:24:32;-0.60;68.40
38333;DHT22;25748;46.670;14.272;2024-03-25T03:27:01;-0.60;68.40
38333;DHT22;25748;46.670;14.272;2024-03-25T03:29:27;-0.60;68.60
38333;DHT22;25748;46.670;14.272;2024-03-25T03:31:53;-0.60;68.50
38333;DHT22;25748;46.670;14.272;2024-03-25T03:34:18;-0.60;68.50
38333;DHT22;25748;46.670;14.272;2024-03-25T03:36:44;-0.60;68.30
38333;DHT22;25748;46.670;14.272;2024-03-25T03:39:10;-0.70;68.30
38333;DHT22;25748;46.670;14.272;2024-03-25T03:41:38;-0.70;68.60
38333;DHT22;25748;46.670;14.272;2024-03-25T03:44:04;-0.70;68.50
38333;DHT22;25748;46.670;14.272;2024-03-25T03:46:30;-0.70;68.70
38333;DHT22;25748;46.670;14.272;2024-03-25T03:48:56;-0.70;68.60
38333;DHT22;25748;46.670;14.272;2024-03-25T03:51:22;-0.70;68.30
38333;DHT22;25748;46.670;14.272;2024-03-25T03:53:49;-0.70;68.80
38333;DHT22;25748;46.670;14.272;2024-03-25T03:56:15;-0.80;68.20
38333;DHT22;25748;46.670;14.272;2024-03-25T03:58:41;-0.80;67.90
38333;DHT22;25748;46.670;14.272;2024-03-25T04:01:15;-0.80;68.10
38333;DHT22;25748;46.670;14.272;2024-03-25T04:03:42;-0.80;68.10
38333;DHT22;25748;46.670;14.272;2024-03-25T04:06:12;-0.90;68.20
38333;DHT22;25748;46.670;14.272;2024-03-25T04:08:41;-0.90;68.40
38333;DHT22;25748;46.670;14.272;2024-03-25T04:11:08;-0.80;68.60
38333;DHT22;25748;46.670;14.272;2024-03-25T04:13:38;-0.90;68.50
38333;DHT22;25748;46.670;14.272;2024-03-25T04:16:10;-0.90;68.50
38333;DHT22;25748;46.670;14.272;2024-03-25T04:18:36;-0.90;68.30
38333;DHT22;25748;46.670;14.272;2024-03-25T04:21:02;-0.90;68.50
38333;DHT22;25748;46.670;14.272;2024-03-25T04:23:28;-0.90;68.40
38333;DHT22;25748;46.670;14.272;2024-03-25T04:25:56;-0.90;68.40
38333;DHT22;25748;46.670;14.272;2024-03-25T04:28:26;-0.90;68.50
38333;DHT22;25748;46.670;14.272;2024-03-25T04:30:52;-0.90;68.70
38333;DHT22;25748;46.670;14.272;2024-03-25T04:33:19;-0.90;68.90
38333;DHT22;25748;46.670;14.272;2024-03-25T04:35:48;-0.90;69.10
38333;DHT22;25748;46.670;14.272;2024-03-25T04:38:16;-0.90;69.10
38333;DHT22;25748;46.670;14.272;2024-03-25T04:40:42;-0.90;69.20
38333;DHT22;25748;46.670;14.272;2024-03-25T04:43:09;-0.80;69.50
38333;DHT22;25748;46.670;14.272;2024-03-25T04:45:35;-0.80;69.60
38333;DHT22;25748;46.670;14.272;2024-03-25T04:48:03;-0.70;69.90
38333;DHT22;25748;46.670;14.272;2024-03-25T04:50:28;-0.70;70.10
38333;DHT22;25748;46.670;14.272;2024-03-25T04:52:58;-0.60;70.20
38333;DHT22;25748;46.670;14.272;2024-03-25T04:55:26;-0.60;70.30
38333;DHT22;25748;46.670;14.272;2024-03-25T04:57:51;-0.50;70.40
38333;DHT22;25748;46.670;14.272;2024-03-25T05:00:20;-0.50;70.40
38333;DHT22;25748;46.670;14.272;2024-03-25T05:02:45;-0.50;70.50
38333;DHT22;25748;46.670;14.272;2024-03-25T05:05:14;-0.50;70.50
38333;DHT22;25748;46.670;14.272;2024-03-25T05:07:40;-0.40;70.60
38333;DHT22;25748;46.670;14.272;2024-03-25T05:10:09;-0.30;70.70
38333;DHT22;25748;46.670;14.272;2024-03-25T05:12:34;-0.40;70.60
38333;DHT22;25748;46.670;14.272;2024-03-25T05:15:00;-0.30;70.50
38333;DHT22;25748;46.670;14.272;2024-03-25T05:17:26;-0.30;70.40
38333;DHT22;25748;46.670;14.272;2024-03-25T05:19:52;-0.30;70.50
38333;DHT22;25748;46.670;14.272;2024-03-25T05:22:17;-0.20;70.60
38333;DHT22;25748;46.670;14.272;2024-03-25T05:24:43;-0.20;70.70
38333;DHT22;25748;46.670;14.272;2024-03-25T05:27:10;-0.20;70.60
38333;DHT22;25748;46.670;14.272;2024-03-25T05:29:36;-0.20;71.10
38333;DHT22;25748;46.670;14.272;2024-03-25T05:32:02;-0.20;70.50
38333;DHT22;25748;46.670;14.272;2024-03-25T05:34:28;-0.20;70.70
38333;DHT22;25748;46.670;14.272;2024-03-25T05:36:55;-0.10;70.80
38333;DHT22;25748;46.670;14.272;2024-03-25T05:39:21;-0.10;70.90
38333;DHT22;25748;46.670;14.272;2024-03-25T05:41:48;-0.10;70.80
38333;DHT22;25748;46.670;14.272;2024-03-25T05:44:14;0.00;71.00
38333;DHT22;25748;46.670;14.272;2024-03-25T05:46:40;0.00;71.00
38333;DHT22;25748;46.670;14.272;2024-03-25T05:49:06;0.00;71.00
38333;DHT22;25748;46.670;14.272;2024-03-25T05:51:32;0.10;71.20
38333;DHT22;25748;46.670;14.272;2024-03-25T05:54:01;0.10;71.10
38333;DHT22;25748;46.670;14.272;2024-03-25T05:56:27;0.10;71.30
38333;DHT22;25748;46.670;14.272;2024-03-25T05:58:59;0.20;71.50
38333;DHT22;25748;46.670;14.272;2024-03-25T06:01:26;0.20;71.70
38333;DHT22;25748;46.670;14.272;2024-03-25T06:03:52;0.30;71.90
38333;DHT22;25748;46.670;14.272;2024-03-25T06:06:18;0.30;71.90
38333;DHT22;25748;46.670;14.272;2024-03-25T06:08:44;0.40;72.20
38333;DHT22;25748;46.670;14.272;2024-03-25T06:11:09;0.40;72.10
38333;DHT22;25748;46.670;14.272;2024-03-25T06:13:35;0.50;72.30
38333;DHT22;25748;46.670;14.272;2024-03-25T06:16:01;0.60;72.40
38333;DHT22;25748;46.670;14.272;2024-03-25T06:18:26;0.60;72.40
38333;DHT22;25748;46.670;14.272;2024-03-25T06:20:52;0.70;72.50
38333;DHT22;25748;46.670;14.272;2024-03-25T06:23:26;0.70;72.60
38333;DHT22;25748;46.670;14.272;2024-03-25T06:25:53;0.80;72.60
38333;DHT22;25748;46.670;14.272;2024-03-25T06:28:19;0.90;72.70
38333;DHT22;25748;46.670;14.272;2024-03-25T06:30:46;0.90;72.70
38333;DHT22;25748;46.670;14.272;2024-03-25T06:33:30;1.00;72.60
38333;DHT22;25748;46.670;14.272;2024-03-25T06:36:15;1.00;72.40
38333;DHT22;25748;46.670;14.272;2024-03-25T06:38:41;1.10;72.10
38333;DHT22;25748;46.670;14.272;2024-03-25T06:41:07;1.10;72.20
38333;DHT22;25748;46.670;14.272;2024-03-25T06:43:32;1.10;72.30
38333;DHT22;25748;46.670;14.272;2024-03-25T06:45:58;1.20;72.00
38333;DHT22;25748;46.670;14.272;2024-03-25T06:48:24;1.20;71.70
38333;DHT22;25748;46.670;14.272;2024-03-25T06:50:57;1.20;72.00
38333;DHT22;25748;46.670;14.272;2024-03-25T06:53:23;1.20;71.50
38333;DHT22;25748;46.670;14.272;2024-03-25T06:55:52;1.30;71.40
38333;DHT22;25748;46.670;14.272;2024-03-25T06:58:19;1.30;71.10
38333;DHT22;25748;46.670;14.272;2024-03-25T07:00:45;1.30;70.70
38333;DHT22;25748;46.670;14.272;2024-03-25T07:03:11;1.30;70.70
38333;DHT22;25748;46.670;14.272;2024-03-25T07:05:36;1.40;71.20
38333;DHT22;25748;46.670;14.272;2024-03-25T07:08:02;1.40;71.40
38333;DHT22;25748;46.670;14.272;2024-03-25T07:10:28;1.50;71.60
38333;DHT22;25748;46.670;14.272;2024-03-25T07:12:53;1.60;71.70
38333;DHT22;25748;46.670;14.272;2024-03-25T07:15:19;1.70;72.00
38333;DHT22;25748;46.670;14.272;2024-03-25T07:17:45;1.80;71.80
38333;DHT22;25748;46.670;14.272;2024-03-25T07:20:10;1.90;72.00
38333;DHT22;25748;46.670;14.272;2024-03-25T07:22:36;2.00;71.70
38333;DHT22;25748;46.670;14.272;2024-03-25T07:25:02;2.10;71.60
38333;DHT22;25748;46.670;14.272;2024-03-25T07:27:27;2.10;71.60
38333;DHT22;25748;46.670;14.272;2024-03-25T07:29:53;2.30;71.50
38333;DHT22;25748;46.670;14.272;2024-03-25T07:32:18;2.40;71.30
38333;DHT22;25748;46.670;14.272;2024-03-25T07:34:44;2.50;71.40
38333;DHT22;25748;46.670;14.272;2024-03-25T07:37:11;2.70;71.60
38333;DHT22;25748;46.670;14.272;2024-03-25T07:39:37;2.80;70.70
38333;DHT22;25748;46.670;14.272;2024-03-25T07:42:02;3.00;70.90
38333;DHT22;25748;46.670;14.272;2024-03-25T07:44:28;3.10;69.60
38333;DHT22;25748;46.670;14.272;2024-03-25T07:46:54;3.20;69.60
38333;DHT22;25748;46.670;14.272;2024-03-25T07:49:20;3.40;68.00
38333;DHT22;25748;46.670;14.272;2024-03-25T07:51:46;3.50;68.10
38333;DHT22;25748;46.670;14.272;2024-03-25T07:54:12;3.60;67.60
38333;DHT22;25748;46.670;14.272;2024-03-25T07:56:42;3.80;67.20
38333;DHT22;25748;46.670;14.272;2024-03-25T07:59:07;3.90;66.40
38333;DHT22;25748;46.670;14.272;2024-03-25T08:01:33;4.00;66.20
38333;DHT22;25748;46.670;14.272;2024-03-25T08:03:59;4.20;65.50
38333;DHT22;25748;46.670;14.272;2024-03-25T08:06:24;4.30;64.40
38333;DHT22;25748;46.670;14.272;2024-03-25T08:08:50;4.50;65.20
38333;DHT22;25748;46.670;14.272;2024-03-25T08:11:15;4.70;65.30
38333;DHT22;25748;46.670;14.272;2024-03-25T08:13:41;5.00;65.20
38333;DHT22;25748;46.670;14.272;2024-03-25T08:16:07;5.20;64.20
38333;DHT22;25748;46.670;14.272;2024-03-25T08:18:33;5.40;63.50
38333;DHT22;25748;46.670;14.272;2024-03-25T08:20:59;5.60;62.10
38333;DHT22;25748;46.670;14.272;2024-03-25T08:23:24;5.90;61.60
38333;DHT22;25748;46.670;14.272;2024-03-25T08:25:50;6.00;60.60
38333;DHT22;25748;46.670;14.272;2024-03-25T08:28:16;6.20;59.90
38333;DHT22;25748;46.670;14.272;2024-03-25T08:30:42;6.40;59.60
38333;DHT22;25748;46.670;14.272;2024-03-25T08:33:07;6.50;59.60
38333;DHT22;25748;46.670;14.272;2024-03-25T08:35:33;6.70;58.80
38333;DHT22;25748;46.670;14.272;2024-03-25T08:37:58;6.80;58.10
38333;DHT22;25748;46.670;14.272;2024-03-25T08:40:24;6.90;58.70
38333;DHT22;25748;46.670;14.272;2024-03-25T08:42:50;7.10;58.20
38333;DHT22;25748;46.670;14.272;2024-03-25T08:45:15;7.20;57.50
38333;DHT22;25748;46.670;14.272;2024-03-25T08:47:41;7.40;57.70
38333;DHT22;25748;46.670;14.272;2024-03-25T08:50:08;7.50;56.50
38333;DHT22;25748;46.670;14.272;2024-03-25T08:52:34;7.60;57.00
38333;DHT22;25748;46.670;14.272;2024-03-25T08:54:59;7.80;56.30
38333;DHT22;25748;46.670;14.272;2024-03-25T08:57:25;7.80;55.60
38333;DHT22;25748;46.670;14.272;2024-03-25T08:59:50;7.90;55.50
38333;DHT22;25748;46.670;14.272;2024-03-25T09:02:16;8.00;55.90
38333;DHT22;25748;46.670;14.272;2024-03-25T09:04:42;8.10;55.50
38333;DHT22;25748;46.670;14.272;2024-03-25T09:07:08;8.20;54.30
38333;DHT22;25748;46.670;14.272;2024-03-25T09:09:33;8.30;54.40
38333;DHT22;25748;46.670;14.272;2024-03-25T09:12:18;8.50;55.40
38333;DHT22;25748;46.670;14.272;2024-03-25T09:14:43;8.80;53.90
38333;DHT22;25748;46.670;14.272;2024-03-25T09:17:09;9.00;53.50
38333;DHT22;25748;46.670;14.272;2024-03-25T09:19:34;9.20;53.90
38333;DHT22;25748;46.670;14.272;2024-03-25T09:22:00;9.40;53.70
38333;DHT22;25748;46.670;14.272;2024-03-25T09:24:27;9.70;53.60
38333;DHT22;25748;46.670;14.272;2024-03-25T09:26:53;10.00;53.40
38333;DHT22;25748;46.670;14.272;2024-03-25T09:29:18;10.20;52.40
38333;DHT22;25748;46.670;14.272;2024-03-25T09:31:44;10.50;51.50
38333;DHT22;25748;46.670;14.272;2024-03-25T09:34:10;10.50;50.90
38333;DHT22;25748;46.670;14.272;2024-03-25T09:36:35;10.80;51.20
38333;DHT22;25748;46.670;14.272;2024-03-25T09:39:01;11.10;50.90
38333;DHT22;25748;46.670;14.272;2024-03-25T09:41:28;11.40;51.30
38333;DHT22;25748;46.670;14.272;2024-03-25T09:43:55;11.80;50.50
38333;DHT22;25748;46.670;14.272;2024-03-25T09:46:23;12.00;50.10
38333;DHT22;25748;46.670;14.272;2024-03-25T09:48:51;12.20;48.00
38333;DHT22;25748;46.670;14.272;2024-03-25T09:51:19;12.40;48.00
38333;DHT22;25748;46.670;14.272;2024-03-25T09:53:45;12.60;47.40
38333;DHT22;25748;46.670;14.272;2024-03-25T09:56:11;12.70;47.10
38333;DHT22;25748;46.670;14.272;2024-03-25T09:58:37;12.80;47.30
38333;DHT22;25748;46.670;14.272;2024-03-25T10:01:03;12.80;46.20
38333;DHT22;25748;46.670;14.272;2024-03-25T10:03:29;12.90;46.40
38333;DHT22;25748;46.670;14.272;2024-03-25T10:05:55;13.20;47.30
38333;DHT22;25748;46.670;14.272;2024-03-25T10:08:21;13.50;47.30
38333;DHT22;25748;46.670;14.272;2024-03-25T10:10:47;13.80;45.80
38333;DHT22;25748;46.670;14.272;2024-03-25T10:13:12;14.10;46.50
38333;DHT22;25748;46.670;14.272;2024-03-25T10:15:38;14.40;44.80
38333;DHT22;25748;46.670;14.272;2024-03-25T10:18:04;14.50;44.50
38333;DHT22;25748;46.670;14.272;2024-03-25T10:20:29;14.50;43.30
38333;DHT22;25748;46.670;14.272;2024-03-25T10:22:55;14.60;43.60
38333;DHT22;25748;46.670;14.272;2024-03-25T10:25:29;14.80;43.50
38333;DHT22;25748;46.670;14.272;2024-03-25T10:27:59;14.80;44.00
38333;DHT22;25748;46.670;14.272;2024-03-25T10:30:26;14.90;43.30
38333;DHT22;25748;46.670;14.272;2024-03-25T10:33:18;14.80;42.40
38333;DHT22;25748;46.670;14.272;2024-03-25T10:35:45;14.90;42.90
38333;DHT22;25748;46.670;14.272;2024-03-25T10:38:14;14.90;43.40
38333;DHT22;25748;46.670;14.272;2024-03-25T10:40:42;15.00;42.00
38333;DHT22;25748;46.670;14.272;2024-03-25T10:43:11;14.90;41.80
38333;DHT22;25748;46.670;14.272;2024-03-25T10:45:42;14.90;41.80
38333;DHT22;25748;46.670;14.272;2024-03-25T10:48:20;14.90;42.50
38333;DHT22;25748;46.670;14.272;2024-03-25T10:50:47;15.00;42.50
38333;DHT22;25748;46.670;14.272;2024-03-25T10:53:18;15.10;43.00
38333;DHT22;25748;46.670;14.272;2024-03-25T10:55:46;15.20;42.50
38333;DHT22;25748;46.670;14.272;2024-03-25T10:58:15;15.40;42.60
38333;DHT22;25748;46.670;14.272;2024-03-25T11:00:41;15.50;42.10
38333;DHT22;25748;46.670;14.272;2024-03-25T11:03:07;15.60;40.70
38333;DHT22;25748;46.670;14.272;2024-03-25T11:05:34;15.80;41.00
38333;DHT22;25748;46.670;14.272;2024-03-25T11:08:13;15.90;40.90
38333;DHT22;25748;46.670;14.272;2024-03-25T11:10:44;15.90;39.50
38333;DHT22;25748;46.670;14.272;2024-03-25T11:13:14;15.90;37.80
38333;DHT22;25748;46.670;14.272;2024-03-25T11:15:41;16.10;38.40
38333;DHT22;25748;46.670;14.272;2024-03-25T11:18:14;16.10;37.70
38333;DHT22;25748;46.670;14.272;2024-03-25T11:20:40;16.20;37.60
38333;DHT22;25748;46.670;14.272;2024-03-25T11:23:09;16.30;38.20
38333;DHT22;25748;46.670;14.272;2024-03-25T11:25:36;16.30;36.50
38333;DHT22;25748;46.670;14.272;2024-03-25T11:28:03;16.40;35.70
38333;DHT22;25748;46.670;14.272;2024-03-25T11:30:29;16.50;36.00
38333;DHT22;25748;46.670;14.272;2024-03-25T11:32:57;16.50;35.60
38333;DHT22;25748;46.670;14.272;2024-03-25T11:35:24;16.50;34.30
38333;DHT22;25748;46.670;14.272;2024-03-25T11:37:50;16.50;33.90
38333;DHT22;25748;46.670;14.272;2024-03-25T11:40:17;16.40;35.00
38333;DHT22;25748;46.670;14.272;2024-03-25T11:42:43;16.40;34.40
38333;DHT22;25748;46.670;14.272;2024-03-25T11:45:17;16.50;34.20
38333;DHT22;25748;46.670;14.272;2024-03-25T11:47:44;16.60;33.70
38333;DHT22;25748;46.670;14.272;2024-03-25T11:50:12;16.70;34.00
38333;DHT22;25748;46.670;14.272;2024-03-25T11:52:38;16.90;33.30
38333;DHT22;25748;46.670;14.272;2024-03-25T11:55:04;17.00;34.20
38333;DHT22;25748;46.670;14.272;2024-03-25T11:57:30;17.20;34.40
38333;DHT22;25748;46.670;14.272;2024-03-25T11:59:57;17.20;34.20
38333;DHT22;25748;46.670;14.272;2024-03-25T12:02:23;17.40;33.70
38333;DHT22;25748;46.670;14.272;2024-03-25T12:04:50;17.50;33.30
38333;DHT22;25748;46.670;14.272;2024-03-25T12:07:15;17.50;33.10
38333;DHT22;25748;46.670;14.272;2024-03-25T12:09:41;17.50;33.30
38333;DHT22;25748;46.670;14.272;2024-03-25T12:12:26;17.60;33.20
38333;DHT22;25748;46.670;14.272;2024-03-25T12:14:53;17.60;33.30
38333;DHT22;25748;46.670;14.272;2024-03-25T12:17:19;17.70;32.90
38333;DHT22;25748;46.670;14.272;2024-03-25T12:20:06;17.60;32.80
38333;DHT22;25748;46.670;14.272;2024-03-25T12:22:35;17.70;34.20
38333;DHT22;25748;46.670;14.272;2024-03-25T12:25:06;17.80;33.30
38333;DHT22;25748;46.670;14.272;2024-03-25T12:27:33;17.80;33.40
38333;DHT22;25748;46.670;14.272;2024-03-25T12:29:59;17.80;33.50
38333;DHT22;25748;46.670;14.272;2024-03-25T12:32:43;17.80;33.90
38333;DHT22;25748;46.670;14.272;2024-03-25T12:35:14;17.80;33.20
38333;DHT22;25748;46.670;14.272;2024-03-25T12:37:44;17.70;32.50
38333;DHT22;25748;46.670;14.272;2024-03-25T12:40:11;17.80;32.10
38333;DHT22;25748;46.670;14.272;2024-03-25T12:42:38;17.70;32.00
38333;DHT22;25748;46.670;14.272;2024-03-25T12:45:07;17.80;32.50
38333;DHT22;25748;46.670;14.272;2024-03-25T12:47:33;17.80;32.10
38333;DHT22;25748;46.670;14.272;2024-03-25T12:49:59;17.70;32.20
38333;DHT22;25748;46.670;14.272;2024-03-25T12:52:26;17.60;31.60
38333;DHT22;25748;46.670;14.272;2024-03-25T12:54:51;17.50;32.00
38333;DHT22;25748;46.670;14.272;2024-03-25T12:57:17;17.30;31.70
38333;DHT22;25748;46.670;14.272;2024-03-25T12:59:44;17.30;32.80
38333;DHT22;25748;46.670;14.272;2024-03-25T13:02:12;17.30;32.20
38333;DHT22;25748;46.670;14.272;2024-03-25T13:04:38;17.30;32.00
38333;DHT22;25748;46.670;14.272;2024-03-25T13:07:05;17.20;31.90
38333;DHT22;25748;46.670;14.272;2024-03-25T13:09:30;17.20;32.10
38333;DHT22;25748;46.670;14.272;2024-03-25T13:11:57;17.20;31.70
38333;DHT22;25748;46.670;14.272;2024-03-25T13:14:23;17.20;32.50
38333;DHT22;25748;46.670;14.272;2024-03-25T13:16:48;17.20;32.60
38333;DHT22;25748;46.670;14.272;2024-03-25T13:19:14;17.30;32.40
38333;DHT22;25748;46.670;14.272;2024-03-25T13:21:40;17.30;32.50
38333;DHT22;25748;46.670;14.272;2024-03-25T13:24:06;17.30;31.40
38333;DHT22;25748;46.670;14.272;2024-03-25T13:26:32;17.10;31.60
38333;DHT22;25748;46.670;14.272;2024-03-25T13:28:58;17.10;32.20
38333;DHT22;25748;46.670;14.272;2024-03-25T13:31:24;17.00;31.80
38333;DHT22;25748;46.670;14.272;2024-03-25T13:33:49;17.10;32.20
38333;DHT22;25748;46.670;14.272;2024-03-25T13:36:17;17.10;32.20
38333;DHT22;25748;46.670;14.272;2024-03-25T13:38:43;17.10;32.50
38333;DHT22;25748;46.670;14.272;2024-03-25T13:41:09;17.10;32.50
38333;DHT22;25748;46.670;14.272;2024-03-25T13:43:35;17.10;32.60
38333;DHT22;25748;46.670;14.272;2024-03-25T13:46:01;17.00;30.70
38333;DHT22;25748;46.670;14.272;2024-03-25T13:48:26;16.80;31.40
38333;DHT22;25748;46.670;14.272;2024-03-25T13:50:55;16.70;32.40
38333;DHT22;25748;46.670;14.272;2024-03-25T13:53:21;16.70;32.80
38333;DHT22;25748;46.670;14.272;2024-03-25T13:55:47;16.70;32.60
38333;DHT22;25748;46.670;14.272;2024-03-25T13:58:13;16.80;33.00
38333;DHT22;25748;46.670;14.272;2024-03-25T14:00:39;16.80;31.70
38333;DHT22;25748;46.670;14.272;2024-03-25T14:03:04;16.80;31.50
38333;DHT22;25748;46.670;14.272;2024-03-25T14:05:30;16.70;32.50
38333;DHT22;25748;46.670;14.272;2024-03-25T14:07:55;16.70;32.70
38333;DHT22;25748;46.670;14.272;2024-03-25T14:10:24;16.80;32.50
38333;DHT22;25748;46.670;14.272;2024-03-25T14:12:50;16.80;31.40
38333;DHT22;25748;46.670;14.272;2024-03-25T14:15:15;16.90;32.30
38333;DHT22;25748;46.670;14.272;2024-03-25T14:17:41;16.90;31.60
38333;DHT22;25748;46.670;14.272;2024-03-25T14:20:07;17.00;31.80
38333;DHT22;25748;46.670;14.272;2024-03-25T14:22:34;17.00;31.50
38333;DHT22;25748;46.670;14.272;2024-03-25T14:25:00;17.10;31.80
38333;DHT22;25748;46.670;14.272;2024-03-25T14:27:26;17.10;32.10
38333;DHT22;25748;46.670;14.272;2024-03-25T14:29:52;17.20;32.00
38333;DHT22;25748;46.670;14.272;2024-03-25T14:32:19;17.20;31.70
38333;DHT22;25748;46.670;14.272;2024-03-25T14:34:46;17.30;32.50
38333;DHT22;25748;46.670;14.272;2024-03-25T14:37:12;17.40;31.90
38333;DHT22;25748;46.670;14.272;2024-03-25T14:39:37;17.30;32.10
38333;DHT22;25748;46.670;14.272;2024-03-25T14:42:03;17.40;30.90
38333;DHT22;25748;46.670;14.272;2024-03-25T14:44:30;17.40;31.00
38333;DHT22;25748;46.670;14.272;2024-03-25T14:46:56;17.40;31.10
38333;DHT22;25748;46.670;14.272;2024-03-25T14:49:24;17.40;31.00
38333;DHT22;25748;46.670;14.272;2024-03-25T14:51:49;17.40;31.10
38333;DHT22;25748;46.670;14.272;2024-03-25T14:54:17;17.50;30.50
38333;DHT22;25748;46.670;14.272;2024-03-25T14:56:42;17.40;31.10
38333;DHT22;25748;46.670;14.272;2024-03-25T14:59:08;17.30;32.00
38333;DHT22;25748;46.670;14.272;2024-03-25T15:01:34;17.30;32.10
38333;DHT22;25748;46.670;14.272;2024-03-25T15:04:01;17.20;32.30
38333;DHT22;25748;46.670;14.272;2024-03-25T15:06:26;17.10;31.30
38333;DHT22;25748;46.670;14.272;2024-03-25T15:08:52;17.00;31.70
38333;DHT22;25748;46.670;14.272;2024-03-25T15:11:18;17.00;31.80
38333;DHT22;25748;46.670;14.272;2024-03-25T15:13:43;17.00;31.60
38333;DHT22;25748;46.670;14.272;2024-03-25T15:16:11;17.00;32.50
38333;DHT22;25748;46.670;14.272;2024-03-25T15:18:36;17.00;31.60